Terminal Aerodrome Forecast
Issued by NWS

Home | Current Version | Previous Version | Text Only | Print | Product List | Glossary On
Versions: 1 2 3 4 5 6 7 8 9 10 11 12 13 14 15 16 17
000
FTUS45 KCYS 230520
TAFRWL
TAF
KRWL 230520Z 2306/2406 22015G25KT P6SM VCSH OVC035
     FM230900 22015G25KT 4SM -SHSN OVC020
     FM231500 22015G25KT 1SM -SN SCT007 OVC012
     FM232300 23012KT P6SM VCSH SCT007 OVC012=

USA.gov is the U.S. government's official web portal to all federal, state and local government web resources and services.